createdAt,value
2022-09-28T00:01:57.916Z,16.77
2022-09-28T00:04:24.393Z,15.05
2022-09-28T00:06:50.769Z,15.90
2022-09-28T00:09:17.770Z,17.17
2022-09-28T00:11:45.997Z,16.15
2022-09-28T00:14:12.846Z,19.00
2022-09-28T00:16:43.454Z,17.02
2022-09-28T00:19:10.961Z,13.75
2022-09-28T00:21:43.056Z,14.43
2022-09-28T00:24:17.293Z,14.00
2022-09-28T00:26:54.643Z,16.92
2022-09-28T00:29:32.278Z,13.55
2022-09-28T00:32:21.511Z,13.30
2022-09-28T00:34:48.882Z,14.88
2022-09-28T00:37:15.309Z,15.48
2022-09-28T00:39:41.766Z,13.57
2022-09-28T00:42:21.834Z,14.15
2022-09-28T00:44:56.102Z,12.45
2022-09-28T00:47:37.885Z,12.48
2022-09-28T00:50:09.272Z,13.02
2022-09-28T00:53:00.565Z,9.65
2022-09-28T00:55:33.667Z,13.77
2022-09-28T00:58:01.804Z,9.95
2022-09-28T01:00:28.409Z,8.50
2022-09-28T01:02:54.875Z,12.30
2022-09-28T01:05:22.377Z,9.05
2022-09-28T01:07:48.768Z,10.93
2022-09-28T01:10:15.331Z,8.52
2022-09-28T01:12:41.677Z,7.00
2022-09-28T01:15:08.362Z,7.53
2022-09-28T01:17:37.521Z,6.95
2022-09-28T01:20:22.465Z,6.07
2022-09-28T01:23:19.038Z,7.47
2022-09-28T01:25:55.818Z,6.53
2022-09-28T01:28:26.297Z,8.27
2022-09-28T01:31:05.475Z,6.80
2022-09-28T01:33:38.251Z,5.78
2022-09-28T01:36:27.715Z,5.47
2022-09-28T01:39:03.332Z,5.32
2022-09-28T01:41:31.525Z,6.63
2022-09-28T01:44:02.808Z,6.03
2022-09-28T01:46:34.446Z,6.05
2022-09-28T01:49:16.474Z,5.20
2022-09-28T01:52:06.811Z,6.93
2022-09-28T01:54:44.352Z,5.10
2022-09-28T01:57:16.761Z,5.93
2022-09-28T01:59:49.564Z,8.60
2022-09-28T02:02:18.821Z,8.32
2022-09-28T02:04:52.308Z,3.90
2022-09-28T02:07:32.141Z,4.35
2022-09-28T02:10:02.888Z,4.75
2022-09-28T02:12:43.534Z,4.13
2022-09-28T02:15:20.662Z,7.97
2022-09-28T02:17:47.471Z,5.82
2022-09-28T02:20:14.020Z,4.75
2022-09-28T02:22:51.327Z,3.20
2022-09-28T02:25:39.188Z,3.55
2022-09-28T02:28:07.284Z,5.22
2022-09-28T02:30:36.419Z,6.00
2022-09-28T02:33:11.077Z,5.38
2022-09-28T02:35:40.357Z,4.25
2022-09-28T02:38:06.913Z,3.97
2022-09-28T02:40:34.859Z,4.45
2022-09-28T02:43:23.799Z,3.40
2022-09-28T02:46:34.392Z,5.35
2022-09-28T02:49:22.154Z,5.20
2022-09-28T02:52:04.289Z,5.25
2022-09-28T02:54:58.173Z,3.55
2022-09-28T02:58:01.534Z,3.13
2022-09-28T03:00:32.845Z,5.00
2022-09-28T03:03:08.103Z,4.72
2022-09-28T03:05:45.968Z,5.43
2022-09-28T03:08:30.428Z,3.10
2022-09-28T03:11:10.275Z,7.18
2022-09-28T03:13:37.073Z,4.47
2022-09-28T03:16:15.277Z,4.07
2022-09-28T03:18:41.690Z,6.30
2022-09-28T03:21:09.570Z,3.83
2022-09-28T03:23:36.006Z,4.50
2022-09-28T03:26:03.755Z,3.88
2022-09-28T03:28:30.298Z,3.15
2022-09-28T03:30:56.878Z,3.95
2022-09-28T03:33:23.340Z,2.30
2022-09-28T03:35:50.576Z,2.85
2022-09-28T03:38:20.661Z,3.90
2022-09-28T03:41:02.869Z,3.10
2022-09-28T03:43:31.123Z,2.67
2022-09-28T03:45:59.797Z,3.13
2022-09-28T03:48:36.116Z,2.00
2022-09-28T03:53:30.608Z,1.80
2022-09-28T03:56:05.584Z,2.78
2022-09-28T03:58:33.260Z,2.25
2022-09-28T04:01:05.049Z,2.00
2022-09-28T04:03:31.724Z,2.80
2022-09-28T04:05:58.367Z,2.70
2022-09-28T04:08:25.183Z,3.55
2022-09-28T04:10:51.660Z,3.65
2022-09-28T04:13:21.033Z,3.08
2022-09-28T04:15:53.272Z,2.00
2022-09-28T04:18:23.602Z,3.25
2022-09-28T04:21:06.490Z,3.22
2022-09-28T04:23:34.572Z,3.03
2022-09-28T04:26:01.460Z,2.35
2022-09-28T04:28:46.906Z,2.40
2022-09-28T04:31:17.064Z,3.05
2022-09-28T04:33:43.699Z,4.35
2022-09-28T04:36:10.973Z,2.83
2022-09-28T04:38:55.246Z,2.10
2022-09-28T04:41:22.504Z,3.10
2022-09-28T04:43:49.609Z,2.85
2022-09-28T04:46:16.430Z,4.82
2022-09-28T04:48:45.645Z,5.40
2022-09-28T04:51:12.036Z,5.78
2022-09-28T04:53:38.474Z,3.95
2022-09-28T04:56:07.489Z,3.25
2022-09-28T04:58:37.495Z,3.03
2022-09-28T05:03:34.791Z,2.45
2022-09-28T05:06:01.529Z,2.50
2022-09-28T05:08:27.918Z,3.58
2022-09-28T05:11:01.979Z,4.45
2022-09-28T05:13:28.904Z,2.55
2022-09-28T05:15:59.694Z,3.17
2022-09-28T05:18:28.217Z,2.55
2022-09-28T05:20:54.645Z,5.55
2022-09-28T05:23:21.004Z,4.07
2022-09-28T05:25:47.388Z,2.42
2022-09-28T05:28:13.907Z,6.20
2022-09-28T05:30:42.916Z,5.38
2022-09-28T05:33:09.570Z,4.70
2022-09-28T05:35:39.446Z,4.80
2022-09-28T05:38:05.817Z,4.50
2022-09-28T05:40:32.509Z,5.30
2022-09-28T05:43:01.136Z,4.30
2022-09-28T05:45:29.003Z,4.53
2022-09-28T05:47:56.608Z,3.00
2022-09-28T05:50:23.387Z,5.50
2022-09-28T05:53:03.801Z,3.95
2022-09-28T05:55:30.541Z,3.35
2022-09-28T05:58:06.154Z,2.83
2022-09-28T06:00:33.443Z,3.63
2022-09-28T06:03:05.395Z,5.03
2022-09-28T06:05:36.093Z,3.78
2022-09-28T06:08:05.061Z,3.28
2022-09-28T06:10:32.219Z,3.63
2022-09-28T06:12:59.383Z,4.75
2022-09-28T06:15:27.976Z,2.70
2022-09-28T06:18:02.102Z,4.82
2022-09-28T06:20:31.040Z,3.20
2022-09-28T06:22:57.458Z,3.05
2022-09-28T06:25:27.440Z,4.25
2022-09-28T06:30:27.001Z,3.00
2022-09-28T06:32:55.040Z,3.00
2022-09-28T06:35:22.239Z,2.13
2022-09-28T06:37:48.773Z,2.42
2022-09-28T06:40:15.341Z,3.20
2022-09-28T06:42:41.821Z,2.78
2022-09-28T06:45:08.544Z,4.18
2022-09-28T06:47:35.169Z,2.70
2022-09-28T06:50:01.557Z,4.70
2022-09-28T06:52:27.913Z,2.88
2022-09-28T06:54:54.269Z,3.38
2022-09-28T06:57:20.697Z,2.70
2022-09-28T06:59:47.061Z,4.82
2022-09-28T07:02:16.410Z,4.32
2022-09-28T07:04:43.259Z,2.85
2022-09-28T07:07:11.396Z,2.45
2022-09-28T07:09:42.234Z,2.60
2022-09-28T07:12:13.314Z,2.83
2022-09-28T07:14:47.711Z,3.17
2022-09-28T07:17:15.082Z,2.65
2022-09-28T07:19:41.897Z,2.60
2022-09-28T07:22:08.266Z,2.97
2022-09-28T07:24:34.630Z,2.92
2022-09-28T07:27:04.424Z,4.05
2022-09-28T07:29:30.799Z,2.45
2022-09-28T07:31:57.162Z,3.55
2022-09-28T07:34:23.934Z,4.28
2022-09-28T07:36:51.907Z,4.25
2022-09-28T07:39:18.260Z,4.15
2022-09-28T07:41:44.658Z,2.40
2022-09-28T07:44:11.203Z,2.88
2022-09-28T07:46:38.037Z,5.35
2022-09-28T07:49:10.014Z,4.00
2022-09-28T07:51:38.899Z,4.28
2022-09-28T07:54:06.484Z,2.10
2022-09-28T07:56:34.834Z,1.98
2022-09-28T07:59:01.265Z,2.58
2022-09-28T08:01:27.980Z,3.15
2022-09-28T08:03:56.117Z,4.60
2022-09-28T08:06:23.193Z,3.95
2022-09-28T08:08:50.285Z,3.78
2022-09-28T08:11:20.490Z,1.70
2022-09-28T08:13:48.133Z,2.85
2022-09-28T08:16:14.706Z,2.45
2022-09-28T08:18:41.150Z,1.60
2022-09-28T08:21:26.112Z,2.45
2022-09-28T08:23:53.063Z,2.92
2022-09-28T08:26:29.072Z,2.10
2022-09-28T08:32:01.538Z,2.13
2022-09-28T08:34:28.872Z,2.35
2022-09-28T08:36:59.075Z,2.50
2022-09-28T08:39:25.727Z,3.08
2022-09-28T08:42:17.281Z,2.63
2022-09-28T08:44:47.081Z,3.00
2022-09-28T08:50:03.538Z,2.65
2022-09-28T08:52:40.093Z,3.42
2022-09-28T08:55:31.619Z,3.20
2022-09-28T08:58:02.897Z,4.25
2022-09-28T09:00:38.087Z,1.67
2022-09-28T09:03:11.510Z,3.33
2022-09-28T09:06:06.604Z,2.90
2022-09-28T09:08:57.434Z,2.20
2022-09-28T09:11:34.154Z,1.92
2022-09-28T09:14:38.578Z,1.67
2022-09-28T09:17:32.232Z,1.33
2022-09-28T09:20:16.866Z,1.48
2022-09-28T09:23:20.806Z,3.50
2022-09-28T09:25:48.689Z,2.13
2022-09-28T09:28:43.538Z,1.85
2022-09-28T09:31:22.901Z,2.55
2022-09-28T09:34:15.651Z,1.23
2022-09-28T09:37:03.380Z,2.75
2022-09-28T09:39:45.487Z,1.85
2022-09-28T09:45:00.626Z,1.98
2022-09-28T09:47:42.882Z,1.75
2022-09-28T09:50:16.290Z,2.35
2022-09-28T09:52:57.075Z,1.73
2022-09-28T09:55:44.223Z,2.42
2022-09-28T09:58:38.905Z,1.88
2022-09-28T10:01:13.232Z,1.83
2022-09-28T10:03:44.512Z,1.50
2022-09-28T10:06:27.445Z,2.45
2022-09-28T10:09:12.442Z,2.63
2022-09-28T10:11:49.809Z,1.92
2022-09-28T10:14:17.458Z,2.63
2022-09-28T10:16:44.892Z,2.17
2022-09-28T10:19:13.162Z,2.35
2022-09-28T10:21:41.170Z,1.73
2022-09-28T10:24:15.146Z,1.52
2022-09-28T10:26:44.364Z,2.10
2022-09-28T10:29:56.653Z,1.80
2022-09-28T10:32:28.001Z,1.85
2022-09-28T10:35:12.432Z,2.00
2022-09-28T10:38:06.187Z,2.45
2022-09-28T10:40:56.122Z,2.15
2022-09-28T10:43:35.668Z,2.13
2022-09-28T10:46:06.029Z,2.53
2022-09-28T10:48:49.881Z,2.70
2022-09-28T10:51:16.300Z,1.40
2022-09-28T10:53:42.788Z,2.13
2022-09-28T10:56:20.957Z,1.90
2022-09-28T10:58:47.390Z,1.50
2022-09-28T11:01:19.605Z,1.73
2022-09-28T11:03:55.145Z,2.67
2022-09-28T11:06:41.727Z,2.53
2022-09-28T11:09:29.691Z,3.45
2022-09-28T11:11:58.273Z,1.70
2022-09-28T11:14:39.613Z,2.67
2022-09-28T11:17:40.391Z,1.80
2022-09-28T11:20:27.937Z,3.42
2022-09-28T11:22:54.693Z,2.13
2022-09-28T11:25:26.912Z,2.22
2022-09-28T11:27:53.186Z,1.80
2022-09-28T11:30:23.949Z,1.60
2022-09-28T11:32:50.880Z,2.45
2022-09-28T11:35:24.911Z,2.00
2022-09-28T11:38:07.304Z,2.50
2022-09-28T11:41:23.233Z,3.08
2022-09-28T11:43:55.595Z,1.30
2022-09-28T11:46:37.206Z,2.45
2022-09-28T11:49:11.387Z,1.77
2022-09-28T11:51:40.317Z,2.03
2022-09-28T11:54:18.648Z,2.42
2022-09-28T11:56:48.027Z,3.35
2022-09-28T11:59:31.576Z,1.48
2022-09-28T12:02:02.105Z,2.08
2022-09-28T12:04:33.225Z,1.80
2022-09-28T12:07:11.286Z,1.83
2022-09-28T12:09:50.542Z,3.08
2022-09-28T12:12:43.771Z,2.33
2022-09-28T12:15:17.132Z,2.05
2022-09-28T12:17:48.457Z,3.60
2022-09-28T12:20:30.695Z,2.50
2022-09-28T12:23:00.103Z,2.60
2022-09-28T12:25:28.676Z,3.38
2022-09-28T12:28:01.542Z,2.15
2022-09-28T12:30:33.499Z,1.90
2022-09-28T12:33:09.185Z,4.15
2022-09-28T12:36:09.689Z,3.65
2022-09-28T12:38:54.135Z,2.38
2022-09-28T12:41:42.372Z,3.63
2022-09-28T12:44:29.090Z,5.22
2022-09-28T12:47:05.976Z,3.50
2022-09-28T12:50:36.303Z,1.50
2022-09-28T12:52:47.375Z,2.97
2022-09-28T12:55:22.999Z,2.97
2022-09-28T12:58:21.568Z,2.85
2022-09-28T13:01:14.224Z,4.65
2022-09-28T13:03:49.784Z,3.88
2022-09-28T13:06:34.875Z,4.22
2022-09-28T13:09:12.308Z,3.00
2022-09-28T13:12:03.501Z,2.78
2022-09-28T13:14:49.015Z,2.47
2022-09-28T13:17:42.512Z,1.90
2022-09-28T13:20:23.329Z,2.33
2022-09-28T13:22:54.679Z,2.03
2022-09-28T13:25:22.054Z,1.83
2022-09-28T13:27:53.512Z,1.40
2022-09-28T13:30:20.104Z,1.50
2022-09-28T13:32:47.475Z,3.33
2022-09-28T13:35:15.195Z,2.75
2022-09-28T13:37:41.651Z,1.90
2022-09-28T13:40:08.326Z,2.53
2022-09-28T13:42:53.821Z,2.10
2022-09-28T13:45:20.120Z,1.40
2022-09-28T13:48:21.966Z,2.58
2022-09-28T13:51:09.635Z,2.90
2022-09-28T13:54:03.762Z,1.65
2022-09-28T13:56:52.764Z,2.38
2022-09-28T13:59:27.665Z,1.90
2022-09-28T14:02:09.407Z,2.00
2022-09-28T14:04:57.797Z,2.00
2022-09-28T14:10:16.609Z,1.50
2022-09-28T14:12:51.791Z,3.08
2022-09-28T14:15:30.271Z,2.00
2022-09-28T14:18:24.121Z,2.05
2022-09-28T14:21:29.497Z,1.60
2022-09-28T14:24:18.852Z,2.40
2022-09-28T14:27:03.080Z,1.67
2022-09-28T14:29:36.139Z,2.35
2022-09-28T14:32:22.437Z,2.05
2022-09-28T14:34:59.102Z,1.95
2022-09-28T14:37:56.363Z,1.67
2022-09-28T14:40:49.949Z,2.70
2022-09-28T14:43:24.348Z,1.60
2022-09-28T14:45:53.442Z,1.50
2022-09-28T14:48:21.889Z,3.15
2022-09-28T14:50:49.872Z,1.33
2022-09-28T14:53:22.049Z,1.67
2022-09-28T14:55:55.648Z,2.20
2022-09-28T14:58:25.562Z,1.73
2022-09-28T15:03:21.759Z,2.08
2022-09-28T15:05:49.231Z,3.30
2022-09-28T15:08:20.198Z,2.33
2022-09-28T15:10:48.673Z,3.38
2022-09-28T15:13:21.283Z,4.63
2022-09-28T15:15:50.764Z,2.55
2022-09-28T15:18:27.480Z,4.45
2022-09-28T15:20:54.164Z,2.70
2022-09-28T15:23:34.423Z,2.47
2022-09-28T15:26:01.025Z,2.45
2022-09-28T15:28:27.396Z,2.30
2022-09-28T15:31:01.787Z,3.08
2022-09-28T15:33:51.969Z,1.70
2022-09-28T15:36:21.843Z,2.47
2022-09-28T15:41:25.988Z,1.90
2022-09-28T15:44:08.333Z,1.70
2022-09-28T15:46:36.555Z,2.53
2022-09-28T15:49:04.675Z,2.00
2022-09-28T15:51:32.382Z,3.63
2022-09-28T15:54:04.106Z,3.55
2022-09-28T15:56:31.492Z,2.20
2022-09-28T15:59:13.142Z,2.38
2022-09-28T16:01:41.118Z,2.67
2022-09-28T16:04:33.592Z,1.92
2022-09-28T16:07:20.988Z,1.70
2022-09-28T16:10:12.811Z,1.73
2022-09-28T16:12:54.145Z,2.10
2022-09-28T16:15:26.616Z,2.80
2022-09-28T16:18:00.533Z,3.92
2022-09-28T16:20:29.384Z,2.20
2022-09-28T16:22:57.614Z,1.75
2022-09-28T16:25:26.013Z,2.90
2022-09-28T16:27:54.993Z,2.67
2022-09-28T16:30:29.988Z,1.80
2022-09-28T16:32:56.426Z,1.77
2022-09-28T16:35:32.701Z,1.60
2022-09-28T16:38:16.380Z,2.47
2022-09-28T16:40:52.561Z,4.43
2022-09-28T16:43:26.889Z,2.20
2022-09-28T16:46:02.031Z,2.33
2022-09-28T16:48:30.637Z,2.92
2022-09-28T16:50:57.839Z,2.00
2022-09-28T16:53:43.784Z,2.88
2022-09-28T16:56:10.765Z,3.10
2022-09-28T16:58:38.979Z,3.03
2022-09-28T17:01:09.409Z,3.45
2022-09-28T17:03:35.994Z,4.95
2022-09-28T17:06:08.701Z,5.97
2022-09-28T17:08:35.603Z,3.78
2022-09-28T17:11:22.853Z,4.70
2022-09-28T17:13:48.683Z,4.75
2022-09-28T17:16:18.290Z,4.60
2022-09-28T17:18:45.908Z,4.47
2022-09-28T17:21:15.780Z,4.15
2022-09-28T17:23:46.367Z,3.97
2022-09-28T17:26:23.200Z,8.45
2022-09-28T17:28:49.677Z,4.90
2022-09-28T17:31:16.546Z,4.47
2022-09-28T17:33:43.491Z,4.40
2022-09-28T17:36:13.235Z,4.32
2022-09-28T17:38:39.971Z,6.45
2022-09-28T17:41:06.359Z,8.45
2022-09-28T17:43:32.749Z,7.88
2022-09-28T17:45:59.409Z,6.75
2022-09-28T17:48:25.781Z,5.85
2022-09-28T17:50:52.157Z,7.07
2022-09-28T17:53:18.621Z,5.93
2022-09-28T17:55:44.986Z,6.57
2022-09-28T17:58:18.552Z,4.97
2022-09-28T18:00:51.493Z,3.63
2022-09-28T18:03:20.275Z,4.10
2022-09-28T18:05:58.201Z,3.20
2022-09-28T18:08:24.688Z,4.50
2022-09-28T18:10:51.159Z,5.15
2022-09-28T18:13:17.612Z,5.22
2022-09-28T18:15:44.246Z,5.07
2022-09-28T18:18:12.497Z,4.68
2022-09-28T18:20:39.420Z,4.80
2022-09-28T18:23:05.786Z,4.97
2022-09-28T18:25:32.154Z,4.03
2022-09-28T18:27:59.941Z,6.97
2022-09-28T18:30:27.510Z,4.03
2022-09-28T18:32:54.144Z,6.10
2022-09-28T18:35:23.018Z,3.95
2022-09-28T18:37:50.235Z,5.93
2022-09-28T18:40:16.643Z,4.38
2022-09-28T18:42:43.093Z,5.68
2022-09-28T18:45:14.199Z,3.47
2022-09-28T18:47:40.649Z,3.53
2022-09-28T18:50:07.679Z,3.78
2022-09-28T18:52:38.431Z,3.60
2022-09-28T18:55:05.992Z,4.30
2022-09-28T18:57:35.269Z,4.00
2022-09-28T19:00:03.567Z,3.47
2022-09-28T19:02:30.189Z,4.82
2022-09-28T19:04:56.673Z,5.10
2022-09-28T19:07:23.212Z,5.32
2022-09-28T19:09:50.074Z,4.90
2022-09-28T19:12:16.983Z,6.57
2022-09-28T19:14:43.463Z,3.63
2022-09-28T19:17:10.157Z,4.75
2022-09-28T19:19:36.521Z,3.95
2022-09-28T19:22:02.969Z,4.50
2022-09-28T19:24:29.376Z,5.85
2022-09-28T19:26:56.520Z,5.00
2022-09-28T19:29:22.945Z,4.88
2022-09-28T19:31:49.789Z,6.80
2022-09-28T19:34:16.365Z,6.40
2022-09-28T19:36:43.128Z,5.63
2022-09-28T19:39:13.763Z,4.25
2022-09-28T19:41:44.700Z,6.00
2022-09-28T19:44:24.514Z,6.78
2022-09-28T19:46:56.172Z,4.72
2022-09-28T19:49:24.031Z,5.85
2022-09-28T19:52:11.696Z,5.75
2022-09-28T19:54:38.507Z,4.68
2022-09-28T19:57:07.604Z,5.07
2022-09-28T19:59:35.452Z,7.57
2022-09-28T20:02:02.072Z,6.82
2022-09-28T20:04:28.848Z,6.78
2022-09-28T20:06:55.230Z,7.07
2022-09-28T20:09:21.574Z,6.43
2022-09-28T20:11:48.501Z,7.20
2022-09-28T20:14:18.596Z,9.48
2022-09-28T20:16:46.183Z,6.97
2022-09-28T20:19:12.963Z,7.40
2022-09-28T20:21:39.326Z,7.88
2022-09-28T20:24:05.856Z,6.03
2022-09-28T20:26:37.569Z,7.68
2022-09-28T20:29:05.109Z,8.35
2022-09-28T20:31:31.549Z,8.25
2022-09-28T20:33:57.997Z,8.80
2022-09-28T20:36:25.009Z,8.00
2022-09-28T20:38:53.307Z,7.68
2022-09-28T20:41:22.065Z,6.95
2022-09-28T20:43:53.140Z,7.88
2022-09-28T20:46:21.180Z,7.05
2022-09-28T20:48:49.929Z,7.95
2022-09-28T20:51:18.574Z,8.77
2022-09-28T20:53:52.466Z,7.22
2022-09-28T20:56:23.866Z,10.95
2022-09-28T20:58:51.062Z,8.77
2022-09-28T21:01:29.837Z,6.95
2022-09-28T21:04:01.562Z,9.27
2022-09-28T21:06:30.236Z,9.20
2022-09-28T21:08:56.996Z,8.32
2022-09-28T21:11:25.330Z,11.02
2022-09-28T21:13:52.886Z,9.63
2022-09-28T21:16:19.257Z,9.45
2022-09-28T21:18:45.748Z,12.25
2022-09-28T21:21:14.383Z,9.13
2022-09-28T21:23:40.916Z,7.88
2022-09-28T21:26:10.217Z,9.98
2022-09-28T21:28:36.930Z,7.95
2022-09-28T21:31:05.628Z,9.98
2022-09-28T21:33:32.317Z,9.38
2022-09-28T21:36:03.766Z,8.20
2022-09-28T21:38:30.381Z,10.90
2022-09-28T21:40:57.956Z,8.68
2022-09-28T21:43:25.762Z,9.70
2022-09-28T21:45:53.076Z,14.95
2022-09-28T21:48:20.780Z,11.30
2022-09-28T21:51:05.024Z,10.98
2022-09-28T21:53:33.960Z,9.95
2022-09-28T21:56:01.365Z,9.73
2022-09-28T21:58:30.129Z,10.60
2022-09-28T22:01:08.154Z,8.80
2022-09-28T22:03:36.158Z,13.15
2022-09-28T22:06:03.927Z,9.77
2022-09-28T22:08:30.300Z,10.27
2022-09-28T22:11:31.117Z,8.15
2022-09-28T22:13:59.178Z,8.52
2022-09-28T22:16:28.108Z,10.00
2022-09-28T22:18:54.827Z,9.55
2022-09-28T22:21:26.709Z,9.10
2022-09-28T22:23:53.405Z,7.25
2022-09-28T22:26:23.374Z,10.40
2022-09-28T22:31:18.738Z,8.93
2022-09-28T22:33:45.124Z,10.48
2022-09-28T22:36:11.771Z,7.32
2022-09-28T22:38:38.131Z,9.75
2022-09-28T22:41:04.504Z,7.78
2022-09-28T22:43:31.040Z,8.55
2022-09-28T22:46:18.740Z,8.82
2022-09-28T22:48:49.787Z,11.60
2022-09-28T22:51:16.827Z,7.65
2022-09-28T22:53:43.319Z,8.52
2022-09-28T22:56:12.598Z,8.60
2022-09-28T22:58:42.835Z,10.43
2022-09-28T23:01:17.781Z,8.38
2022-09-28T23:03:44.788Z,9.90
2022-09-28T23:06:12.831Z,7.38
2022-09-28T23:08:39.473Z,7.85
2022-09-28T23:11:06.314Z,12.60
2022-09-28T23:13:32.911Z,8.43
2022-09-28T23:16:04.897Z,8.68
2022-09-28T23:18:33.667Z,9.25
2022-09-28T23:21:02.220Z,8.02
2022-09-28T23:23:28.898Z,9.73
2022-09-28T23:25:55.864Z,11.65
2022-09-28T23:28:23.678Z,11.13
2022-09-28T23:30:50.115Z,11.15
2022-09-28T23:33:17.959Z,11.05
2022-09-28T23:35:44.856Z,8.98
2022-09-28T23:38:13.406Z,10.65
2022-09-28T23:40:40.907Z,9.10
2022-09-28T23:43:07.961Z,11.70
2022-09-28T23:45:34.395Z,12.57
2022-09-28T23:48:00.924Z,9.13
2022-09-28T23:50:27.367Z,9.93
2022-09-28T23:52:53.836Z,8.90
2022-09-28T23:55:20.298Z,8.85
2022-09-28T23:57:46.703Z,8.57
